createdAt,value
2019-05-11T00:00:08.900Z,3.67
2019-05-11T00:02:38.264Z,3.67
2019-05-11T00:05:07.845Z,3.80
2019-05-11T00:07:37.190Z,3.72
2019-05-11T00:10:07.511Z,3.85
2019-05-11T00:12:36.956Z,3.95
2019-05-11T00:15:07.697Z,3.67
2019-05-11T00:17:37.140Z,4.30
2019-05-11T00:20:07.883Z,4.00
2019-05-11T00:22:37.339Z,4.37
2019-05-11T00:25:08.120Z,4.20
2019-05-11T00:27:37.478Z,4.17
2019-05-11T00:30:07.430Z,4.00
2019-05-11T00:32:36.848Z,4.08
2019-05-11T00:35:07.369Z,4.40
2019-05-11T00:37:36.812Z,3.85
2019-05-11T00:40:14.260Z,4.22
2019-05-11T00:42:37.910Z,4.40
2019-05-11T00:45:07.477Z,4.00
2019-05-11T00:47:36.873Z,3.85
2019-05-11T00:50:08.371Z,4.12
2019-05-11T00:52:37.804Z,4.37
2019-05-11T00:55:07.631Z,4.17
2019-05-11T00:57:36.997Z,3.72
2019-05-11T01:00:08.485Z,3.87
2019-05-11T01:02:37.952Z,4.10
2019-05-11T01:05:07.846Z,3.72
2019-05-11T01:07:37.249Z,3.75
2019-05-11T01:10:21.826Z,3.90
2019-05-11T01:12:39.122Z,3.52
2019-05-11T01:15:09.629Z,3.98
2019-05-11T01:17:38.971Z,3.90
2019-05-11T01:20:08.381Z,3.98
2019-05-11T01:22:37.809Z,3.52
2019-05-11T01:25:07.465Z,3.45
2019-05-11T01:27:36.882Z,3.67
2019-05-11T01:30:06.816Z,3.70
2019-05-11T01:32:36.286Z,4.20
2019-05-11T01:35:09.228Z,3.72
2019-05-11T01:37:38.612Z,23.70
2019-05-11T01:40:08.620Z,4.20
2019-05-11T01:42:38.047Z,3.42
2019-05-11T01:45:07.607Z,3.02
2019-05-11T01:47:36.971Z,5.92
2019-05-11T01:50:06.692Z,3.35
2019-05-11T01:52:36.102Z,4.10
2019-05-11T01:55:06.207Z,4.60
2019-05-11T01:57:35.558Z,5.60
2019-05-11T02:00:06.610Z,3.33
2019-05-11T02:02:36.004Z,6.40
2019-05-11T02:05:24.810Z,5.30
2019-05-11T02:07:54.169Z,6.15
2019-05-11T02:10:23.656Z,7.70
2019-05-11T02:12:53.406Z,7.12
2019-05-11T02:15:22.836Z,9.80
2019-05-11T02:17:52.267Z,8.20
2019-05-11T02:20:21.687Z,4.05
2019-05-11T02:22:51.100Z,2.90
2019-05-11T02:25:20.467Z,2.55
2019-05-11T02:27:49.880Z,2.77
2019-05-11T02:30:19.432Z,2.80
2019-05-11T02:32:48.908Z,2.83
2019-05-11T02:35:18.488Z,3.72
2019-05-11T02:37:47.848Z,3.65
2019-05-11T02:40:18.120Z,3.70
2019-05-11T02:42:47.436Z,3.85
2019-05-11T02:45:19.695Z,4.05
2019-05-11T02:47:49.098Z,4.40
2019-05-11T02:50:18.550Z,5.70
2019-05-11T02:52:48.671Z,6.10
2019-05-11T02:55:18.094Z,5.83
2019-05-11T02:57:47.508Z,5.22
2019-05-11T03:00:19.775Z,6.22
2019-05-11T03:02:49.147Z,5.65
2019-05-11T03:05:18.573Z,4.42
2019-05-11T03:07:47.938Z,4.08
2019-05-11T03:10:17.360Z,3.95
2019-05-11T03:12:46.714Z,4.60
2019-05-11T03:15:16.124Z,4.87
2019-05-11T03:17:45.556Z,5.58
2019-05-11T03:20:14.910Z,6.15
2019-05-11T03:22:44.332Z,5.60
2019-05-11T03:25:13.763Z,5.40
2019-05-11T03:27:43.184Z,5.60
2019-05-11T03:30:12.599Z,5.62
2019-05-11T03:32:42.037Z,4.67
2019-05-11T03:35:11.415Z,4.87
2019-05-11T03:37:40.775Z,4.90
2019-05-11T03:40:10.355Z,4.92
2019-05-11T03:42:39.808Z,5.45
2019-05-11T03:45:09.250Z,4.75
2019-05-11T03:47:38.657Z,5.33
2019-05-11T03:50:08.131Z,4.50
2019-05-11T03:52:37.632Z,4.53
2019-05-11T03:55:07.853Z,4.50
2019-05-11T03:57:37.629Z,4.85
2019-05-11T04:00:08.031Z,4.62
2019-05-11T04:02:37.458Z,5.40
2019-05-11T04:05:06.885Z,4.47
2019-05-11T04:07:36.263Z,6.22
2019-05-11T04:10:07.357Z,11.95
2019-05-11T04:12:36.822Z,8.35
2019-05-11T04:15:07.840Z,5.60
2019-05-11T04:17:37.180Z,5.12
2019-05-11T04:20:06.883Z,4.95
2019-05-11T04:22:36.230Z,4.30
2019-05-11T04:25:05.848Z,3.35
2019-05-11T04:27:35.401Z,3.37
2019-05-11T04:30:06.645Z,3.20
2019-05-11T04:32:36.020Z,3.05
2019-05-11T04:35:06.751Z,3.30
2019-05-11T04:37:36.093Z,3.30
2019-05-11T04:40:07.245Z,3.70
2019-05-11T04:42:53.288Z,3.50
2019-05-11T04:45:10.416Z,3.10
2019-05-11T04:47:39.821Z,3.00
2019-05-11T04:50:09.564Z,3.00
2019-05-11T04:52:39.052Z,2.55
2019-05-11T04:55:08.764Z,2.40
2019-05-11T04:57:38.176Z,2.17
2019-05-11T05:00:08.243Z,2.17
2019-05-11T05:02:37.767Z,2.70
2019-05-11T05:05:07.775Z,2.40
2019-05-11T05:07:37.131Z,2.60
2019-05-11T05:10:08.411Z,2.52
2019-05-11T05:12:37.900Z,2.22
2019-05-11T05:15:07.378Z,2.30
2019-05-11T05:17:36.847Z,2.00
2019-05-11T05:20:07.903Z,2.10
2019-05-11T05:22:37.307Z,2.17
2019-05-11T05:25:07.519Z,2.42
2019-05-11T05:27:36.889Z,2.40
2019-05-11T05:30:07.732Z,2.37
2019-05-11T05:32:39.362Z,2.30
2019-05-11T05:35:11.854Z,1.80
2019-05-11T05:37:41.220Z,1.98
2019-05-11T05:40:12.956Z,2.00
2019-05-11T05:42:42.667Z,2.00
2019-05-11T05:45:15.598Z,1.80
2019-05-11T05:47:45.188Z,1.85
2019-05-11T05:50:16.421Z,2.00
2019-05-11T05:52:46.015Z,2.00
2019-05-11T05:55:15.506Z,1.47
2019-05-11T05:57:45.011Z,1.60
2019-05-11T06:00:15.294Z,1.40
2019-05-11T06:02:44.732Z,1.30
2019-05-11T06:05:14.256Z,1.50
2019-05-11T06:07:54.139Z,1.27
2019-05-11T06:10:29.637Z,1.30
2019-05-11T06:13:04.794Z,1.52
2019-05-11T06:15:34.325Z,1.30
2019-05-11T06:18:03.810Z,1.90
2019-05-11T06:20:33.403Z,1.37
2019-05-11T06:23:02.845Z,1.65
2019-05-11T06:25:32.204Z,1.30
2019-05-11T06:28:01.842Z,1.50
2019-05-11T06:30:31.464Z,1.00
2019-05-11T06:33:00.958Z,1.10
2019-05-11T06:35:32.791Z,1.05
2019-05-11T06:38:02.131Z,1.47
2019-05-11T06:40:31.605Z,1.40
2019-05-11T06:43:00.794Z,1.10
2019-05-11T06:45:30.111Z,1.20
2019-05-11T06:48:02.295Z,1.10
2019-05-11T06:50:38.121Z,4.70
2019-05-11T06:53:07.550Z,0.90
2019-05-11T06:55:38.693Z,1.15
2019-05-11T06:58:11.475Z,0.90
2019-05-11T07:00:40.690Z,1.00
2019-05-11T07:03:12.995Z,1.00
2019-05-11T07:05:43.878Z,0.80
2019-05-11T07:08:13.110Z,0.90
2019-05-11T07:10:42.340Z,1.00
2019-05-11T07:13:11.574Z,0.90
2019-05-11T07:15:40.696Z,1.30
2019-05-11T07:18:11.287Z,1.30
2019-05-11T07:20:49.948Z,1.13
2019-05-11T07:23:11.475Z,1.80
2019-05-11T07:25:43.599Z,1.10
2019-05-11T07:28:13.848Z,0.90
2019-05-11T07:30:49.162Z,0.70
2019-05-11T07:33:18.705Z,1.07
2019-05-11T07:35:48.409Z,0.60
2019-05-11T07:38:27.846Z,0.70
2019-05-11T07:40:59.532Z,0.83
2019-05-11T07:43:28.913Z,0.40
2019-05-11T07:46:01.444Z,0.90
2019-05-11T07:48:31.336Z,0.60
2019-05-11T07:51:05.756Z,1.00
2019-05-11T07:53:38.120Z,1.37
2019-05-11T07:56:08.401Z,1.30
2019-05-11T07:58:40.555Z,0.80
2019-05-11T08:01:09.767Z,0.83
2019-05-11T08:03:39.112Z,0.77
2019-05-11T08:06:08.949Z,0.70
2019-05-11T08:08:40.010Z,0.60
2019-05-11T08:11:14.702Z,0.40
2019-05-11T08:13:43.890Z,0.80
2019-05-11T08:16:21.704Z,0.60
2019-05-11T08:18:52.377Z,0.70
2019-05-11T08:21:21.456Z,0.70
2019-05-11T08:23:53.812Z,1.10
2019-05-11T08:26:22.981Z,0.50
2019-05-11T08:28:52.247Z,1.20
2019-05-11T08:31:21.415Z,0.67
2019-05-11T08:33:50.645Z,0.80
2019-05-11T08:36:22.476Z,0.50
2019-05-11T08:38:51.689Z,0.40
2019-05-11T08:41:20.955Z,0.63
2019-05-11T08:43:55.646Z,0.60
2019-05-11T08:46:27.958Z,0.63
2019-05-11T08:48:59.536Z,0.50
2019-05-11T08:51:28.427Z,0.40
2019-05-11T08:53:58.352Z,3.63
2019-05-11T08:56:28.914Z,0.40
2019-05-11T08:58:58.776Z,0.40
2019-05-11T09:01:28.829Z,0.37
2019-05-11T09:04:01.295Z,1.13
2019-05-11T09:06:34.873Z,0.40
2019-05-11T09:09:08.699Z,0.60
2019-05-11T09:11:41.630Z,0.57
2019-05-11T09:14:20.254Z,0.97
2019-05-11T09:16:49.933Z,0.90
2019-05-11T09:19:21.790Z,0.70
2019-05-11T09:21:53.557Z,0.60
2019-05-11T09:24:22.857Z,0.60
2019-05-11T09:26:51.979Z,0.50
2019-05-11T09:29:21.103Z,1.37
2019-05-11T09:31:50.170Z,4.40
2019-05-11T09:34:19.285Z,0.40
2019-05-11T09:36:48.962Z,0.97
2019-05-11T09:39:18.160Z,0.53
2019-05-11T09:41:48.869Z,0.57
2019-05-11T09:44:28.811Z,0.57
2019-05-11T09:47:02.649Z,0.93
2019-05-11T09:49:47.533Z,0.53
2019-05-11T09:52:10.769Z,0.63
2019-05-11T09:54:42.204Z,5.00
2019-05-11T09:57:19.082Z,2.50
2019-05-11T09:59:48.104Z,0.40
2019-05-11T10:02:20.849Z,0.60
2019-05-11T10:04:57.928Z,1.47
2019-05-11T10:07:34.782Z,1.00
2019-05-11T10:10:09.282Z,0.80
2019-05-11T10:12:39.968Z,0.87
2019-05-11T10:15:12.388Z,0.90
2019-05-11T10:17:41.444Z,0.50
2019-05-11T10:20:18.149Z,0.53
2019-05-11T10:25:33.218Z,1.03
2019-05-11T10:28:02.375Z,0.70
2019-05-11T10:30:31.434Z,0.80
2019-05-11T10:33:00.577Z,0.77
2019-05-11T10:35:29.727Z,0.57
2019-05-11T10:38:12.607Z,0.77
2019-05-11T10:40:47.861Z,0.60
2019-05-11T10:43:18.319Z,0.63
2019-05-11T10:45:49.998Z,0.80
2019-05-11T10:48:21.964Z,1.00
2019-05-11T10:51:01.108Z,0.60
2019-05-11T10:53:43.367Z,0.80
2019-05-11T10:59:09.269Z,0.80
2019-05-11T11:01:45.247Z,0.70
2019-05-11T11:04:14.342Z,0.70
2019-05-11T11:06:43.447Z,1.00
2019-05-11T11:09:19.740Z,0.80
2019-05-11T11:11:54.562Z,0.80
2019-05-11T11:14:24.210Z,0.70
2019-05-11T11:17:00.309Z,1.20
2019-05-11T11:19:33.598Z,0.60
2019-05-11T11:22:30.263Z,0.80
2019-05-11T11:24:37.704Z,0.80
2019-05-11T11:27:13.548Z,0.77
2019-05-11T11:29:51.321Z,0.60
2019-05-11T11:32:20.606Z,1.03
2019-05-11T11:34:57.787Z,0.90
2019-05-11T11:37:28.141Z,1.10
2019-05-11T11:40:08.389Z,0.63
2019-05-11T11:42:48.940Z,0.70
2019-05-11T11:45:18.455Z,0.53
2019-05-11T11:47:58.055Z,1.10
2019-05-11T11:50:32.273Z,0.73
2019-05-11T11:53:11.831Z,1.00
2019-05-11T11:56:03.848Z,0.80
2019-05-11T11:58:34.789Z,1.03
2019-05-11T12:04:02.118Z,1.40
2019-05-11T12:12:28.202Z,0.80
2019-05-11T12:15:00.041Z,0.77
2019-05-11T12:17:32.564Z,1.10
2019-05-11T12:20:04.682Z,2.20
2019-05-11T12:22:39.596Z,1.50
2019-05-11T12:25:14.750Z,0.90
2019-05-11T12:27:48.955Z,0.80
2019-05-11T12:30:17.881Z,0.80
2019-05-11T12:32:52.225Z,0.70
2019-05-11T12:35:21.573Z,0.53
2019-05-11T12:37:58.731Z,0.80
2019-05-11T12:40:32.869Z,0.80
2019-05-11T12:43:23.980Z,0.70
2019-05-11T12:46:08.002Z,0.80
2019-05-11T12:48:38.086Z,0.63
2019-05-11T12:51:18.497Z,0.70
2019-05-11T12:53:50.045Z,1.07
2019-05-11T12:56:19.259Z,0.70
2019-05-11T12:58:52.253Z,0.90
2019-05-11T13:01:25.842Z,0.80
2019-05-11T13:03:55.144Z,0.60
2019-05-11T13:06:24.902Z,0.60
2019-05-11T13:08:54.253Z,0.70
2019-05-11T13:11:23.890Z,0.70
2019-05-11T13:13:54.128Z,0.80
2019-05-11T13:16:23.326Z,0.67
2019-05-11T13:18:52.682Z,0.70
2019-05-11T13:21:22.186Z,0.90
2019-05-11T13:24:09.102Z,0.67
2019-05-11T13:26:41.583Z,0.60
2019-05-11T13:29:10.819Z,0.70
2019-05-11T13:31:40.195Z,0.77
2019-05-11T13:34:10.024Z,0.77
2019-05-11T13:36:42.031Z,0.77
2019-05-11T13:39:11.245Z,0.70
2019-05-11T13:41:40.832Z,0.70
2019-05-11T13:44:21.056Z,0.70
2019-05-11T13:46:53.523Z,0.93
2019-05-11T13:49:33.839Z,0.73
2019-05-11T13:52:08.436Z,0.93
2019-05-11T13:54:38.638Z,0.80
2019-05-11T13:57:10.548Z,0.70
2019-05-11T13:59:39.938Z,0.80
2019-05-11T14:02:14.289Z,0.80
2019-05-11T14:04:48.166Z,0.70
2019-05-11T14:07:22.032Z,0.93
2019-05-11T14:09:51.309Z,0.60
2019-05-11T14:12:20.763Z,0.70
2019-05-11T14:14:53.264Z,0.70
2019-05-11T14:20:15.000Z,0.70
2019-05-11T14:22:44.402Z,0.73
2019-05-11T14:25:18.600Z,0.60
2019-05-11T14:27:50.572Z,0.50
2019-05-11T14:30:24.154Z,0.47
2019-05-11T14:32:53.255Z,0.50
2019-05-11T14:35:24.217Z,1.23
2019-05-11T14:38:00.608Z,2.03
2019-05-11T14:40:34.541Z,0.60
2019-05-11T14:43:20.477Z,0.70
2019-05-11T14:45:49.775Z,0.40
2019-05-11T14:48:26.321Z,0.50
2019-05-11T14:50:49.981Z,0.40
2019-05-11T14:53:21.401Z,0.40
2019-05-11T14:55:51.028Z,0.50
2019-05-11T14:58:27.961Z,0.53
2019-05-11T15:00:55.658Z,0.67
2019-05-11T15:03:28.626Z,0.53
2019-05-11T15:05:58.240Z,0.50
2019-05-11T15:08:33.094Z,0.30
2019-05-11T15:11:14.627Z,0.30
2019-05-11T15:13:48.777Z,0.30
2019-05-11T15:16:22.028Z,0.60
2019-05-11T15:18:51.424Z,0.40
2019-05-11T15:21:20.586Z,0.37
2019-05-11T15:23:54.676Z,0.30
2019-05-11T15:26:23.842Z,0.50
2019-05-11T15:28:54.465Z,0.60
2019-05-11T15:31:23.607Z,0.30
2019-05-11T15:33:53.127Z,0.40
2019-05-11T15:36:23.724Z,0.50
2019-05-11T15:38:52.786Z,0.30
2019-05-11T15:41:25.502Z,0.33
2019-05-11T15:43:59.614Z,0.40
2019-05-11T15:46:31.095Z,0.73
2019-05-11T15:49:04.438Z,0.80
2019-05-11T15:51:40.783Z,0.43
2019-05-11T15:54:08.023Z,0.60
2019-05-11T15:56:38.513Z,0.33
2019-05-11T15:59:15.000Z,0.30
2019-05-11T16:01:41.615Z,0.50
2019-05-11T16:04:10.825Z,1.00
2019-05-11T16:06:40.195Z,0.90
2019-05-11T16:09:09.366Z,0.87
2019-05-11T16:11:40.209Z,0.80
2019-05-11T16:14:09.343Z,0.60
2019-05-11T16:16:39.181Z,0.47
2019-05-11T16:19:14.791Z,0.50
2019-05-11T16:21:40.172Z,0.40
2019-05-11T16:24:11.425Z,0.70
2019-05-11T16:26:47.538Z,1.20
2019-05-11T16:29:18.862Z,2.67
2019-05-11T16:31:48.379Z,2.50
2019-05-11T16:34:18.425Z,1.25
2019-05-11T16:36:48.082Z,0.83
2019-05-11T16:39:18.666Z,1.15
2019-05-11T16:41:48.738Z,1.15
2019-05-11T16:44:18.600Z,1.65
2019-05-11T16:46:50.990Z,1.50
2019-05-11T16:49:28.451Z,1.52
2019-05-11T16:51:51.122Z,1.70
2019-05-11T16:54:23.293Z,1.32
2019-05-11T16:56:52.847Z,1.50
2019-05-11T16:59:22.444Z,1.45
2019-05-11T17:01:51.838Z,1.60
2019-05-11T17:04:26.642Z,2.37
2019-05-11T17:06:55.272Z,3.17
2019-05-11T17:09:25.026Z,2.10
2019-05-11T17:11:59.436Z,2.05
2019-05-11T17:14:28.540Z,1.80
2019-05-11T17:16:58.662Z,1.72
2019-05-11T17:19:42.120Z,2.50
2019-05-11T17:22:01.736Z,2.12
2019-05-11T17:24:31.046Z,2.08
2019-05-11T17:27:00.557Z,1.50
2019-05-11T17:29:30.020Z,2.10
2019-05-11T17:31:59.847Z,2.87
2019-05-11T17:34:29.287Z,2.58
2019-05-11T17:37:00.149Z,1.87
2019-05-11T17:39:29.918Z,1.55
2019-05-11T17:42:01.043Z,1.10
2019-05-11T17:44:30.721Z,1.55
2019-05-11T17:47:01.871Z,1.42
2019-05-11T17:49:38.297Z,1.15
2019-05-11T17:52:08.164Z,1.47
2019-05-11T17:54:38.367Z,1.50
2019-05-11T17:57:08.053Z,1.07
2019-05-11T17:59:38.605Z,1.45
2019-05-11T18:02:11.044Z,1.70
2019-05-11T18:04:41.887Z,1.77
2019-05-11T18:07:24.286Z,2.22
2019-05-11T18:09:42.705Z,3.58
2019-05-11T18:12:12.149Z,6.15
2019-05-11T18:14:41.794Z,13.62
2019-05-11T18:17:11.256Z,15.72
2019-05-11T18:19:40.625Z,17.27
2019-05-11T18:22:10.149Z,12.43
2019-05-11T18:24:39.620Z,7.05
2019-05-11T18:27:09.118Z,9.48
2019-05-11T18:29:38.598Z,5.92
2019-05-11T18:32:08.157Z,6.17
2019-05-11T18:34:37.789Z,5.83
2019-05-11T18:37:08.796Z,5.40
2019-05-11T18:39:38.460Z,5.62
2019-05-11T18:42:08.329Z,3.65
2019-05-11T18:44:40.138Z,4.35
2019-05-11T18:47:09.338Z,4.65
2019-05-11T18:49:38.816Z,4.83
2019-05-11T18:52:08.519Z,4.08
2019-05-11T18:54:38.483Z,3.20
2019-05-11T18:57:08.230Z,3.17
2019-05-11T18:59:38.008Z,2.52
2019-05-11T19:02:08.417Z,1.70
2019-05-11T19:04:39.307Z,2.22
2019-05-11T19:07:16.324Z,2.33
2019-05-11T19:09:40.067Z,2.75
2019-05-11T19:12:09.508Z,2.02
2019-05-11T19:14:39.650Z,2.30
2019-05-11T19:17:09.186Z,3.75
2019-05-11T19:19:38.621Z,3.12
2019-05-11T19:22:08.998Z,3.85
2019-05-11T19:24:38.665Z,3.70
2019-05-11T19:27:08.246Z,3.27
2019-05-11T19:29:38.045Z,3.55
2019-05-11T19:32:11.029Z,4.03
2019-05-11T19:34:39.006Z,5.75
2019-05-11T19:37:08.714Z,4.10
2019-05-11T19:39:38.585Z,3.70
2019-05-11T19:42:08.127Z,3.65
2019-05-11T19:44:38.565Z,3.27
2019-05-11T19:47:08.958Z,3.08
2019-05-11T19:49:38.532Z,2.85
2019-05-11T19:52:08.584Z,3.00
2019-05-11T19:54:38.600Z,2.62
2019-05-11T19:57:08.419Z,2.10
2019-05-11T19:59:38.736Z,2.08
2019-05-11T20:02:08.512Z,2.20
2019-05-11T20:04:38.731Z,2.20
2019-05-11T20:07:08.751Z,1.98
2019-05-11T20:09:38.897Z,1.70
2019-05-11T20:12:08.308Z,1.90
2019-05-11T20:14:37.940Z,1.70
2019-05-11T20:17:08.950Z,2.08
2019-05-11T20:19:38.562Z,1.60
2019-05-11T20:22:08.171Z,3.95
2019-05-11T20:24:37.692Z,1.60
2019-05-11T20:27:08.048Z,1.77
2019-05-11T20:29:38.453Z,1.72
2019-05-11T20:32:08.181Z,1.40
2019-05-11T20:34:38.199Z,1.65
2019-05-11T20:37:07.933Z,1.50
2019-05-11T20:39:37.937Z,1.92
2019-05-11T20:42:08.708Z,1.70
2019-05-11T20:44:38.119Z,2.02
2019-05-11T20:47:07.514Z,1.90
2019-05-11T20:49:39.934Z,2.00
2019-05-11T20:52:12.243Z,2.15
2019-05-11T20:54:41.585Z,2.50
2019-05-11T20:57:10.978Z,2.52
2019-05-11T20:59:40.327Z,2.72
2019-05-11T21:02:09.879Z,2.67
2019-05-11T21:04:39.230Z,2.60
2019-05-11T21:07:08.645Z,3.30
2019-05-11T21:09:38.063Z,4.83
2019-05-11T21:12:08.190Z,5.20
2019-05-11T21:14:38.584Z,4.60
2019-05-11T21:17:09.021Z,5.15
2019-05-11T21:19:40.767Z,3.80
2019-05-11T21:22:09.725Z,3.60
2019-05-11T21:24:39.125Z,3.83
2019-05-11T21:27:08.492Z,3.50
2019-05-11T21:29:38.698Z,3.70
2019-05-11T21:32:08.189Z,3.47
2019-05-11T21:34:38.356Z,3.60
2019-05-11T21:37:07.963Z,3.25
2019-05-11T21:39:37.952Z,3.50
2019-05-11T21:42:07.780Z,3.22
2019-05-11T21:44:37.312Z,3.33
2019-05-11T21:47:07.737Z,3.65
2019-05-11T21:49:37.770Z,2.90
2019-05-11T21:52:07.789Z,3.20
2019-05-11T21:54:38.674Z,2.80
2019-05-11T21:57:08.395Z,2.52
2019-05-11T21:59:38.034Z,2.85
2019-05-11T22:02:08.203Z,2.40
2019-05-11T22:04:38.898Z,3.02
2019-05-11T22:07:08.372Z,2.33
2019-05-11T22:09:38.403Z,2.92
2019-05-11T22:12:10.883Z,2.92
2019-05-11T22:14:39.139Z,3.30
2019-05-11T22:17:08.497Z,3.20
2019-05-11T22:19:40.295Z,2.85
2019-05-11T22:22:21.454Z,3.10
2019-05-11T22:24:42.810Z,2.92
2019-05-11T22:27:12.227Z,2.75
2019-05-11T22:29:41.657Z,2.60
2019-05-11T22:32:11.077Z,2.42
2019-05-11T22:34:40.475Z,2.15
2019-05-11T22:37:11.331Z,2.20
2019-05-11T22:39:40.754Z,2.08
2019-05-11T22:42:15.041Z,1.60
2019-05-11T22:44:44.458Z,1.62
2019-05-11T22:47:13.883Z,1.67
2019-05-11T22:49:43.203Z,1.52
2019-05-11T22:52:12.617Z,1.80
2019-05-11T22:54:41.972Z,1.52
2019-05-11T22:57:11.317Z,1.40
2019-05-11T22:59:40.667Z,1.42
2019-05-11T23:02:10.766Z,1.60
2019-05-11T23:04:40.466Z,1.40
2019-05-11T23:07:09.877Z,1.40
2019-05-11T23:09:39.215Z,1.60
2019-05-11T23:12:09.177Z,1.47
2019-05-11T23:14:38.622Z,1.57
2019-05-11T23:17:08.235Z,1.30
2019-05-11T23:19:38.218Z,1.30
2019-05-11T23:22:08.232Z,1.37
2019-05-11T23:24:37.880Z,1.47
2019-05-11T23:27:08.039Z,1.70
2019-05-11T23:29:38.370Z,1.37
2019-05-11T23:32:08.654Z,1.37
2019-05-11T23:34:38.756Z,1.87
2019-05-11T23:37:08.446Z,1.75
2019-05-11T23:39:38.755Z,1.80
2019-05-11T23:42:08.346Z,1.90
2019-05-11T23:44:37.760Z,1.85
2019-05-11T23:47:07.179Z,1.70
2019-05-11T23:49:36.533Z,2.15
2019-05-11T23:52:07.630Z,1.98
2019-05-11T23:54:38.237Z,2.15
2019-05-11T23:57:09.360Z,1.98
2019-05-11T23:59:38.929Z,1.77
